Time;durP1;ratioP1;P1;durP2;ratioP2;P2;SDS_P1;SDS_P2;PMS_P1;PMS_P2;Temp;Humidity;BMP_temperature;BMP_pressure;BME280_temperature;BME280_humidity;BME280_pressure;Samples;Min_cycle;Max_cycle;Signal;HPM_P1;HPM_P2
2023/10/23 00:02:01;;;;;;;0.93;0.93;;;;;;;19.53;91.02;100085.31;5033033;28;20593;-77
2023/10/23 00:04:30;;;;;;;1.02;1.02;;;;;;;19.54;90.09;100094.97;5016580;28;20196;-77
2023/10/23 00:06:56;;;;;;;1.38;0.90;;;;;;;19.38;90.43;100080.34;5051507;28;20207;-78
2023/10/23 00:09:23;;;;;;;0.80;0.80;;;;;;;19.37;90.21;100090.00;5051379;28;20242;-77
2023/10/23 00:11:50;;;;;;;0.68;0.68;;;;;;;19.25;89.95;100075.38;5051729;28;20207;-82
2023/10/23 00:14:17;;;;;;;0.80;0.80;;;;;;;19.10;90.08;100070.41;5051251;28;20199;-77
2023/10/23 00:16:43;;;;;;;0.68;0.68;;;;;;;19.23;90.26;100097.28;5051194;28;20199;-77
2023/10/23 00:19:10;;;;;;;1.40;1.30;;;;;;;19.14;88.36;100087.84;5051466;28;20250;-76
2023/10/23 00:21:38;;;;;;;0.75;0.75;;;;;;;19.10;87.09;100086.19;5052712;28;20200;-78
2023/10/23 00:24:05;;;;;;;0.70;0.70;;;;;;;19.00;87.60;100083.75;5020097;28;20664;-77
2023/10/23 00:26:32;;;;;;;0.88;0.88;;;;;;;18.95;88.18;100086.47;5054926;28;20203;-76
2023/10/23 00:29:00;;;;;;;0.70;0.70;;;;;;;18.93;87.88;100087.41;5054816;28;20203;-77
2023/10/23 00:31:27;;;;;;;0.70;0.70;;;;;;;18.69;89.78;100086.09;5054866;28;20227;-77
2023/10/23 00:33:54;;;;;;;1.58;1.50;;;;;;;18.77;89.49;100092.06;5054990;28;20607;-77
2023/10/23 00:36:20;;;;;;;0.90;0.85;;;;;;;18.87;87.74;100104.13;5054642;28;20675;-77
2023/10/23 00:38:49;;;;;;;0.80;0.80;;;;;;;18.97;86.44;100104.84;5054698;28;20657;-77
2023/10/23 00:41:15;;;;;;;1.23;1.23;;;;;;;18.99;85.93;100109.16;5054866;28;20204;-77
2023/10/23 00:43:42;;;;;;;0.70;0.70;;;;;;;19.03;85.77;100110.84;5054813;28;20789;-77
2023/10/23 00:46:15;;;;;;;0.95;0.95;;;;;;;19.11;85.83;100103.69;5054936;28;20203;-77
2023/10/23 00:48:43;;;;;;;0.80;0.80;;;;;;;19.06;86.55;100105.53;5054453;28;20191;-76
2023/10/23 00:51:12;;;;;;;1.13;1.13;;;;;;;18.97;87.05;100095.19;5054529;28;20687;-77
2023/10/23 00:53:40;;;;;;;3.20;1.50;;;;;;;19.01;87.18;100107.38;5054395;28;20671;-76
2023/10/23 00:56:10;;;;;;;0.68;0.68;;;;;;;18.90;87.55;100088.31;5054424;28;20753;-77
2023/10/23 00:58:39;;;;;;;0.70;0.70;;;;;;;18.96;88.06;100103.97;5054490;28;20589;-76
2023/10/23 01:01:07;;;;;;;0.80;0.80;;;;;;;18.78;88.29;100073.66;5054627;28;20286;-77
2023/10/23 01:03:34;;;;;;;0.90;0.90;;;;;;;19.03;87.95;100104.72;5054162;28;20210;-77
2023/10/23 01:06:01;;;;;;;1.05;1.05;;;;;;;19.00;88.42;100110.03;5054455;28;20203;-78
2023/10/23 01:08:28;;;;;;;0.60;0.60;;;;;;;18.99;88.89;100103.91;5054475;28;20593;-78
2023/10/23 01:10:56;;;;;;;0.73;0.73;;;;;;;18.97;89.50;100105.72;5054371;28;20223;-78
2023/10/23 01:13:25;;;;;;;0.90;0.90;;;;;;;18.94;90.69;100112.78;5054929;28;20710;-78
2023/10/23 01:15:52;;;;;;;0.68;0.68;;;;;;;18.87;90.46;100104.13;5054713;28;20199;-79
2023/10/23 01:18:19;;;;;;;2.88;2.67;;;;;;;18.72;91.30;100105.28;5054177;28;20199;-78
2023/10/23 01:20:46;;;;;;;1.15;1.15;;;;;;;18.68;92.28;100102.75;5053985;28;20204;-77
2023/10/23 01:23:13;;;;;;;1.02;1.02;;;;;;;18.65;92.83;100114.19;5054420;28;20301;-77
2023/10/23 01:25:41;;;;;;;1.00;1.00;;;;;;;18.57;93.89;100105.56;5053987;28;20199;-78
2023/10/23 01:28:08;;;;;;;0.70;0.70;;;;;;;18.51;94.44;100100.41;5036461;28;20199;-78
2023/10/23 01:30:35;;;;;;;0.80;0.80;;;;;;;18.39;94.32;100083.94;5053871;28;20723;-78
2023/10/23 01:33:02;;;;;;;0.77;0.77;;;;;;;18.51;93.98;100104.78;5053176;28;20662;-78
2023/10/23 01:35:28;;;;;;;0.80;0.80;;;;;;;18.60;94.16;100109.88;5054019;28;20211;-77
2023/10/23 01:37:56;;;;;;;1.45;1.45;;;;;;;18.64;93.12;100117.69;5053858;28;20203;-77
2023/10/23 01:40:22;;;;;;;0.88;0.85;;;;;;;18.67;92.46;100117.63;5053607;28;20637;-77
2023/10/23 01:42:50;;;;;;;0.95;0.95;;;;;;;18.73;92.52;100103.50;5053602;28;20682;-76
2023/10/23 01:45:18;;;;;;;2.00;1.90;;;;;;;18.74;92.15;100102.63;5053535;28;20196;-77
2023/10/23 01:47:45;;;;;;;3.10;1.77;;;;;;;18.77;91.91;100107.81;5018934;28;20250;-79
2023/10/23 01:50:12;;;;;;;0.60;0.60;;;;;;;18.85;90.92;100110.31;5018661;28;20227;-77
2023/10/23 01:52:41;;;;;;;0.80;0.80;;;;;;;18.70;90.45;100079.94;5053549;28;20635;-77
2023/10/23 01:55:08;;;;;;;0.70;0.70;;;;;;;18.92;90.20;100107.53;5053534;28;20261;-77
2023/10/23 01:57:35;;;;;;;0.70;0.70;;;;;;;18.91;90.58;100107.56;5053392;28;20199;-77
2023/10/23 02:00:05;;;;;;;1.52;1.42;;;;;;;19.00;90.14;100112.66;5053282;28;20265;-77
2023/10/23 02:02:32;;;;;;;0.70;0.70;;;;;;;18.95;89.96;100102.22;5053200;28;20257;-77
2023/10/23 02:05:00;;;;;;;1.02;1.02;;;;;;;18.97;89.74;100116.22;5053611;28;20203;-78
2023/10/23 02:07:27;;;;;;;0.90;0.90;;;;;;;18.92;90.27;100123.31;5053528;28;20411;-78
2023/10/23 02:09:56;;;;;;;0.70;0.70;;;;;;;18.92;90.57;100117.19;5053443;28;20292;-78
2023/10/23 02:12:23;;;;;;;1.52;1.42;;;;;;;18.73;90.46;100090.38;5053303;28;20199;-78
2023/10/23 02:14:50;;;;;;;1.90;1.80;;;;;;;18.89;90.48;100115.50;5053133;28;20195;-77
2023/10/23 02:17:17;;;;;;;1.17;1.17;;;;;;;18.79;90.88;100095.53;5053953;28;20196;-77
2023/10/23 02:19:44;;;;;;;0.70;0.70;;;;;;;18.34;90.99;100032.38;5053219;28;20278;-77
2023/10/23 02:22:11;;;;;;;0.80;0.80;;;;;;;18.81;91.25;100109.50;5053750;28;20269;-77
2023/10/23 02:24:38;;;;;;;0.70;0.70;;;;;;;18.89;91.58;100123.38;5053854;28;20211;-77
2023/10/23 02:27:05;;;;;;;1.23;1.23;;;;;;;18.89;91.13;100123.38;5053866;28;20623;-77
2023/10/23 02:29:31;;;;;;;0.60;0.60;;;;;;;18.89;91.34;100127.75;5054121;28;20218;-77
2023/10/23 02:31:58;;;;;;;0.90;0.90;;;;;;;18.87;91.00;100130.41;5053323;28;20239;-77
2023/10/23 02:34:26;;;;;;;1.80;1.70;;;;;;;18.94;90.61;100137.28;5053317;28;20206;-77
2023/10/23 02:36:53;;;;;;;0.80;0.80;;;;;;;18.94;90.21;100142.53;5054404;28;20203;-78
2023/10/23 02:39:20;;;;;;;1.05;1.05;;;;;;;18.85;90.14;100115.56;5054007;28;20253;-77
2023/10/23 02:41:47;;;;;;;1.90;1.80;;;;;;;18.96;90.25;100145.13;5054231;28;20203;-80
2023/10/23 02:44:14;;;;;;;1.15;1.15;;;;;;;18.93;91.14;100146.06;5052816;28;20253;-77
2023/10/23 02:46:40;;;;;;;0.70;0.70;;;;;;;18.94;90.79;100142.53;5052274;28;20580;-77
2023/10/23 02:49:07;;;;;;;0.70;0.70;;;;;;;18.84;90.48;100117.31;5052664;28;20290;-77
2023/10/23 02:51:36;;;;;;;0.88;0.88;;;;;;;19.06;90.02;100146.69;5052043;28;20227;-77
2023/10/23 02:54:04;;;;;;;2.28;1.98;;;;;;;19.08;90.40;100135.28;5052305;28;20214;-78
2023/10/23 02:56:31;;;;;;;1.13;1.13;;;;;;;19.05;90.16;100130.06;5017531;28;20203;-77
2023/10/23 02:58:58;;;;;;;0.68;0.68;;;;;;;19.26;89.28;100145.44;5052598;28;20211;-77
2023/10/23 03:01:25;;;;;;;0.70;0.70;;;;;;;19.26;88.88;100129.66;5051985;28;20675;-77
2023/10/23 03:03:52;;;;;;;0.80;0.80;;;;;;;19.49;87.63;100149.41;5052340;28;20199;-77
2023/10/23 03:06:20;;;;;;;1.25;1.25;;;;;;;19.60;86.46;100155.31;5052357;28;20198;-78
2023/10/23 03:08:48;;;;;;;1.17;1.13;;;;;;;19.62;85.70;100135.13;5052460;28;20287;-77
2023/10/23 03:11:15;;;;;;;0.77;0.77;;;;;;;19.72;85.56;100144.56;5052354;28;20231;-77
2023/10/23 03:13:42;;;;;;;1.27;1.27;;;;;;;19.69;86.03;100140.19;5033837;28;20203;-77
2023/10/23 03:16:08;;;;;;;0.93;0.93;;;;;;;19.68;85.80;100137.63;5051886;28;20202;-78
2023/10/23 03:18:35;;;;;;;0.82;0.82;;;;;;;19.59;87.31;100143.06;5051782;28;20200;-77
2023/10/23 03:21:03;;;;;;;0.80;0.80;;;;;;;19.52;87.96;100144.94;5052145;28;20253;-78
2023/10/23 03:23:30;;;;;;;0.70;0.70;;;;;;;19.42;87.99;100159.19;5051897;28;20211;-77
2023/10/23 03:26:00;;;;;;;0.93;0.90;;;;;;;19.41;87.96;100153.91;5051573;28;20227;-76
2023/10/23 03:28:26;;;;;;;0.90;0.90;;;;;;;19.31;88.97;100143.59;5051828;28;20207;-78
2023/10/23 03:30:53;;;;;;;1.15;1.15;;;;;;;19.28;89.13;100143.66;5052010;28;20236;-78
2023/10/23 03:33:20;;;;;;;0.77;0.77;;;;;;;19.25;90.14;100138.47;5052023;28;20602;-78
2023/10/23 03:35:47;;;;;;;0.90;0.90;;;;;;;19.19;90.30;100135.94;5052157;28;20226;-78
2023/10/23 03:38:14;;;;;;;0.88;0.88;;;;;;;19.21;90.80;100135.91;5051866;28;20234;-78
2023/10/23 03:40:41;;;;;;;0.70;0.70;;;;;;;19.23;90.78;100140.22;5051858;28;20203;-77
2023/10/23 03:43:10;;;;;;;0.90;0.90;;;;;;;19.28;90.21;100138.41;5051735;28;20203;-77
2023/10/23 03:45:37;;;;;;;1.63;1.55;;;;;;;19.16;90.26;100130.72;5051743;28;20203;-79
2023/10/23 03:48:04;;;;;;;0.80;0.80;;;;;;;19.19;91.05;100143.81;5033296;28;20235;-78
2023/10/23 03:50:31;;;;;;;0.88;0.88;;;;;;;19.20;91.30;100157.81;5051427;28;20230;-78
2023/10/23 03:52:58;;;;;;;1.00;1.00;;;;;;;19.17;90.95;100166.66;5051696;28;20687;-78
2023/10/23 03:55:25;;;;;;;0.75;0.75;;;;;;;19.17;89.73;100164.00;5032963;28;20294;-78
2023/10/23 03:57:51;;;;;;;4.07;2.42;;;;;;;19.14;90.55;100161.44;5051518;28;20694;-79
2023/10/23 04:00:20;;;;;;;1.13;1.13;;;;;;;18.98;91.38;100132.88;5051853;28;20207;-78
2023/10/23 04:02:46;;;;;;;1.95;1.45;;;;;;;18.82;93.59;100158.53;5051265;28;20200;-77
2023/10/23 04:05:13;;;;;;;2.53;2.38;;;;;;;18.77;93.05;100165.59;5051394;28;20690;-78
2023/10/23 04:07:40;;;;;;;0.70;0.70;;;;;;;18.76;92.87;100166.53;5049704;28;20196;-77
2023/10/23 04:10:08;;;;;;;1.45;1.35;;;;;;;18.84;92.58;100172.50;5051307;28;20223;-78
2023/10/23 04:12:35;;;;;;;0.75;0.75;;;;;;;18.66;93.84;100157.91;5051179;28;20718;-78
2023/10/23 04:15:03;;;;;;;1.17;1.17;;;;;;;18.64;96.16;100164.09;5051152;28;20702;-78
2023/10/23 04:17:31;;;;;;;3.03;1.35;;;;;;;18.61;96.87;100164.16;5051031;28;20261;-77
2023/10/23 04:19:58;;;;;;;0.80;0.80;;;;;;;18.53;97.85;100166.03;5051228;28;20203;-78
2023/10/23 04:22:25;;;;;;;0.70;0.70;;;;;;;18.49;99.37;100165.16;5051563;28;20337;-79
2023/10/23 04:24:53;;;;;;;1.33;1.23;;;;;;;18.26;99.11;100120.88;5051186;28;20206;-79
2023/10/23 04:27:20;;;;;;;0.80;0.80;;;;;;;18.41;99.80;100153.06;5033495;28;20286;-78
2023/10/23 04:29:47;;;;;;;1.95;1.52;;;;;;;18.38;100.00;100159.22;5051213;28;20227;-78
2023/10/23 04:32:14;;;;;;;0.70;0.70;;;;;;;18.33;100.00;100169.78;5051633;28;20226;-78
2023/10/23 04:34:42;;;;;;;0.80;0.80;;;;;;;17.61;100.00;100081.66;5051020;28;20253;-77
2023/10/23 04:37:09;;;;;;;0.90;0.90;;;;;;;18.20;100.00;100177.84;5051314;28;20208;-78
2023/10/23 04:39:35;;;;;;;1.33;1.13;;;;;;;18.20;100.00;100181.34;5051384;28;20253;-78
2023/10/23 04:42:02;;;;;;;30.65;1.77;;;;;;;18.15;100.00;100182.31;5016190;28;20229;-78
2023/10/23 04:44:29;;;;;;;1.88;1.42;;;;;;;18.14;100.00;100186.69;5016079;28;20662;-78
2023/10/23 04:46:56;;;;;;;1.00;1.00;;;;;;;18.12;100.00;100188.47;5050849;28;20200;-78
2023/10/23 04:49:23;;;;;;;0.82;0.82;;;;;;;18.13;100.00;100186.72;5051025;28;20200;-79
2023/10/23 04:51:51;;;;;;;1.55;1.55;;;;;;;18.08;100.00;100186.81;5051043;28;20223;-78
2023/10/23 04:54:18;;;;;;;0.68;0.68;;;;;;;18.03;100.00;100201.72;5050979;28;20207;-78
2023/10/23 04:56:44;;;;;;;0.73;0.73;;;;;;;18.11;100.00;100199.00;5050832;28;20196;-78
2023/10/23 04:59:11;;;;;;;0.82;0.82;;;;;;;18.13;100.00;100202.47;5016011;28;20214;-78
2023/10/23 05:01:38;;;;;;;1.75;1.65;;;;;;;18.13;100.00;100208.56;5051216;28;20207;-78
2023/10/23 05:04:05;;;;;;;0.95;0.95;;;;;;;18.21;98.87;100205.84;5050877;28;20208;-78
2023/10/23 05:06:32;;;;;;;0.80;0.80;;;;;;;18.24;98.54;100209.28;5016340;28;20196;-78
2023/10/23 05:09:00;;;;;;;0.80;0.80;;;;;;;18.36;97.99;100199.53;5052964;28;20206;-76
2023/10/23 05:11:27;;;;;;;0.80;0.80;;;;;;;18.32;98.59;100202.19;5052265;28;20293;-77
2023/10/23 05:13:54;;;;;;;0.90;0.90;;;;;;;18.31;98.70;100197.81;5054081;28;20664;-76
2023/10/23 05:16:21;;;;;;;0.68;0.68;;;;;;;18.35;99.05;100211.78;5035571;28;20671;-77
2023/10/23 05:18:47;;;;;;;3.33;2.42;;;;;;;18.41;98.00;100218.72;5054178;28;20219;-75
2023/10/23 05:21:14;;;;;;;1.45;1.33;;;;;;;18.51;95.91;100236.09;5054112;28;20239;-75
2023/10/23 05:23:42;;;;;;;0.90;0.90;;;;;;;18.47;95.94;100235.25;5054274;28;20196;-76
2023/10/23 05:26:11;;;;;;;3.35;1.33;;;;;;;18.54;95.98;100226.41;5053865;28;20306;-76
2023/10/23 05:28:40;;;;;;;0.80;0.80;;;;;;;18.58;95.42;100243.00;5035360;28;20265;-75
2023/10/23 05:31:07;;;;;;;0.70;0.70;;;;;;;18.54;93.90;100246.53;5053743;28;20239;-76
2023/10/23 05:33:34;;;;;;;0.70;0.70;;;;;;;18.58;93.37;100240.34;5053898;28;20214;-75
2023/10/23 05:36:04;;;;;;;0.80;0.80;;;;;;;18.72;91.49;100244.50;5053720;28;20231;-76
2023/10/23 05:38:31;;;;;;;1.33;1.33;;;;;;;18.64;91.15;100245.50;5053800;28;20239;-76
2023/10/23 05:40:59;;;;;;;0.90;0.90;;;;;;;18.55;89.95;100229.91;5053750;28;20682;-77
2023/10/23 05:43:27;;;;;;;0.60;0.60;;;;;;;18.81;89.05;100249.63;5054517;28;20695;-76
2023/10/23 05:45:54;;;;;;;0.70;0.70;;;;;;;18.66;87.47;100252.47;5069561;28;20289;-75
2023/10/23 05:48:21;;;;;;;0.80;0.80;;;;;;;18.66;88.89;100256.84;5054640;28;20272;-77
2023/10/23 05:50:57;;;;;;;1.52;1.50;;;;;;;18.80;88.19;100255.75;5073506;28;20233;-76
2023/10/23 05:53:24;;;;;;;0.80;0.80;;;;;;;18.73;88.89;100246.22;5073321;28;20271;-76
2023/10/23 05:55:51;;;;;;;1.10;1.10;;;;;;;18.84;89.36;100256.56;5073138;28;20242;-75
2023/10/23 05:58:17;;;;;;;0.60;0.60;;;;;;;19.01;88.38;100259.81;5073404;28;20244;-75
2023/10/23 06:00:45;;;;;;;0.70;0.70;;;;;;;18.99;87.03;100235.31;5058775;28;20204;-76
2023/10/23 06:03:12;;;;;;;0.90;0.90;;;;;;;19.23;85.95;100245.38;5037954;28;20646;-76
2023/10/23 06:05:41;;;;;;;0.80;0.80;;;;;;;19.52;82.23;100242.28;5073405;28;20206;-75
2023/10/23 06:08:07;;;;;;;0.60;0.60;;;;;;;19.83;80.63;100258.34;5073474;28;20231;-76
2023/10/23 06:10:40;;;;;;;0.90;0.90;;;;;;;19.97;79.59;100230.00;5037716;28;20202;-76
2023/10/23 06:13:07;;;;;;;1.00;1.00;;;;;;;20.19;79.40;100231.25;5072797;28;20680;-77
2023/10/23 06:15:34;;;;;;;0.80;0.80;;;;;;;20.46;77.83;100266.69;5073314;28;20206;-76
2023/10/23 06:18:03;;;;;;;1.30;1.30;;;;;;;20.64;76.41;100274.19;5070374;28;20278;-75
2023/10/23 06:20:29;;;;;;;1.00;1.00;;;;;;;20.57;76.19;100271.72;5061599;28;20203;-74
2023/10/23 06:22:56;;;;;;;0.80;0.80;;;;;;;20.42;77.32;100274.69;5072818;28;20210;-76
2023/10/23 06:25:23;;;;;;;0.90;0.90;;;;;;;20.28;75.77;100215.28;5066776;28;20204;-75
2023/10/23 06:27:50;;;;;;;0.95;0.95;;;;;;;20.87;75.32;100285.97;5066431;28;20206;-76
2023/10/23 06:30:16;;;;;;;1.77;1.67;;;;;;;20.61;74.43;100276.88;5072570;28;20234;-77
2023/10/23 06:32:43;;;;;;;1.42;1.35;;;;;;;20.88;74.53;100285.91;5081090;28;20228;-80
2023/10/23 06:35:11;;;;;;;1.35;1.35;;;;;;;20.66;75.14;100295.19;5070194;28;20211;-80
2023/10/23 06:37:38;;;;;;;1.75;1.65;;;;;;;20.64;74.62;100266.28;5064131;28;20214;-79
2023/10/23 06:40:06;;;;;;;0.80;0.80;;;;;;;21.12;73.33;100295.88;5072506;28;20207;-79
2023/10/23 06:42:33;;;;;;;1.08;0.95;;;;;;;21.28;72.45;100291.09;5072943;28;20224;-80
2023/10/23 06:45:00;;;;;;;1.45;1.08;;;;;;;21.49;72.44;100289.69;5058365;28;20207;-79
2023/10/23 06:47:26;;;;;;;1.10;1.10;;;;;;;21.65;71.33;100283.94;5059732;28;20207;-79
2023/10/23 06:49:53;;;;;;;0.77;0.77;;;;;;;21.70;71.78;100294.38;5072587;28;20654;-78
2023/10/23 06:52:21;;;;;;;0.90;0.90;;;;;;;21.92;70.70;100287.66;5072372;28;20219;-81
2023/10/23 06:54:48;;;;;;;0.90;0.90;;;;;;;21.95;71.30;100306.06;5027160;28;20207;-80
2023/10/23 06:57:15;;;;;;;1.20;1.20;;;;;;;21.80;70.55;100306.44;5055485;28;20218;-81
2023/10/23 06:59:42;;;;;;;1.38;1.00;;;;;;;21.38;71.75;100303.16;5073055;28;20203;-77
2023/10/23 07:02:09;;;;;;;2.05;1.92;;;;;;;21.75;71.57;100295.16;5072290;28;20368;-79
2023/10/23 07:04:36;;;;;;;1.83;1.73;;;;;;;21.94;70.61;100292.91;5072359;28;20211;-78
2023/10/23 07:07:03;;;;;;;0.90;0.90;;;;;;;21.97;70.55;100293.69;5072218;28;20689;-79
2023/10/23 07:09:32;;;;;;;5.88;1.92;;;;;;;21.97;69.81;100272.56;5058057;28;20201;-80
2023/10/23 07:11:59;;;;;;;8.35;1.88;;;;;;;21.95;71.57;100278.78;5074321;28;20242;-80
2023/10/23 07:14:26;;;;;;;2.47;2.28;;;;;;;22.08;71.79;100291.59;5068190;28;20202;-81
2023/10/23 07:16:52;;;;;;;1.77;1.77;;;;;;;22.18;72.33;100284.28;5062190;28;20591;-81
2023/10/23 07:19:19;;;;;;;0.70;0.70;;;;;;;22.52;70.41;100294.69;5072075;28;20673;-80
2023/10/23 07:21:46;;;;;;;0.90;0.90;;;;;;;22.52;71.62;100286.75;5072574;28;20206;-79
2023/10/23 07:24:13;;;;;;;1.20;1.20;;;;;;;22.03;76.34;100298.78;5054528;28;20214;-79
2023/10/23 07:26:41;;;;;;;1.17;1.08;;;;;;;21.99;76.69;100281.28;5072324;28;20588;-79
2023/10/23 07:29:08;;;;;;;1.33;1.33;;;;;;;21.96;77.56;100313.06;5072325;28;20205;-77
2023/10/23 07:31:36;;;;;;;1.80;1.70;;;;;;;21.68;81.90;100312.94;5056838;28;20230;-77
2023/10/23 07:34:04;;;;;;;1.15;1.15;;;;;;;21.64;82.38;100313.91;5072580;28;20206;-77
2023/10/23 07:36:30;;;;;;;0.73;0.73;;;;;;;21.52;82.30;100263.22;5072188;28;20253;-76
2023/10/23 07:38:57;;;;;;;0.80;0.80;;;;;;;21.77;81.33;100303.88;5036271;28;20195;-78
2023/10/23 07:41:24;;;;;;;1.10;1.10;;;;;;;21.81;81.44;100302.03;5057207;28;20214;-78
2023/10/23 07:43:52;;;;;;;1.00;1.00;;;;;;;22.22;78.86;100315.81;5071502;28;20194;-79
2023/10/23 07:46:19;;;;;;;1.00;1.00;;;;;;;22.30;77.33;100312.09;5071141;28;20203;-77
2023/10/23 07:48:46;;;;;;;0.80;0.80;;;;;;;22.47;76.44;100309.84;5072126;28;20295;-80
2023/10/23 07:51:13;;;;;;;1.27;1.27;;;;;;;22.70;75.88;100317.97;5072123;28;20203;-82
2023/10/23 07:53:40;;;;;;;2.35;2.22;;;;;;;23.03;76.16;100311.63;5071944;28;20665;-81
2023/10/23 07:56:07;;;;;;;8.73;1.50;;;;;;;23.09;71.01;100314.06;5072678;28;20213;-77
2023/10/23 07:58:34;;;;;;;1.15;1.15;;;;;;;22.64;75.57;100318.13;5022928;28;20222;-78
2023/10/23 08:01:07;;;;;;;1.65;1.55;;;;;;;22.73;76.98;100312.56;5071400;28;20199;-77
2023/10/23 08:03:34;;;;;;;4.75;2.88;;;;;;;22.50;77.25;100307.09;5071463;28;20213;-77
2023/10/23 08:06:03;;;;;;;3.08;2.83;;;;;;;22.80;77.15;100323.81;5071213;28;20234;-78
2023/10/23 08:08:30;;;;;;;2.95;2.53;;;;;;;23.02;75.45;100315.16;5071652;28;20203;-79
2023/10/23 08:10:56;;;;;;;1.23;1.23;;;;;;;22.74;75.84;100293.16;5071237;28;20198;-78
2023/10/23 08:13:23;;;;;;;1.25;1.23;;;;;;;23.05;75.08;100316.84;5071164;28;20229;-77
2023/10/23 08:15:50;;;;;;;1.38;1.35;;;;;;;22.96;75.49;100314.50;5056911;28;20199;-75
2023/10/23 08:18:19;;;;;;;1.90;1.80;;;;;;;23.16;77.06;100323.53;5070878;28;20763;-75
2023/10/23 08:20:46;;;;;;;1.73;1.73;;;;;;;23.36;78.54;100311.44;5070837;28;20207;-76
2023/10/23 08:23:12;;;;;;;0.93;0.93;;;;;;;23.48;75.03;100318.97;5070978;28;20202;-74
2023/10/23 08:25:41;;;;;;;0.90;0.90;;;;;;;23.55;76.93;100312.53;5070835;28;20206;-75
2023/10/23 08:28:08;;;;;;;1.00;1.00;;;;;;;23.50;78.09;100311.88;5065994;28;20687;-76
2023/10/23 08:30:35;;;;;;;1.25;1.15;;;;;;;23.42;78.36;100303.31;5061770;28;20296;-76
2023/10/23 08:33:03;;;;;;;1.23;1.23;;;;;;;23.63;77.59;100315.81;5070409;28;20230;-76
2023/10/23 08:35:31;;;;;;;1.67;1.58;;;;;;;23.66;75.99;100319.22;5063920;28;20218;-76
2023/10/23 08:37:58;;;;;;;7.03;3.10;;;;;;;23.50;75.54;100311.88;5056623;28;20207;-78
2023/10/23 08:40:25;;;;;;;3.30;2.88;;;;;;;23.73;75.83;100319.00;5021849;28;20670;-79
2023/10/23 08:42:52;;;;;;;0.90;0.90;;;;;;;23.81;74.85;100301.94;5072566;28;20203;-78
2023/10/23 08:45:18;;;;;;;0.98;0.98;;;;;;;23.41;76.09;100314.78;5074700;28;20210;-78
2023/10/23 08:47:45;;;;;;;1.13;1.13;;;;;;;22.92;76.27;100260.84;5074463;28;20202;-79
2023/10/23 08:50:14;;;;;;;0.82;0.82;;;;;;;23.19;77.04;100283.72;5074588;28;20210;-78
2023/10/23 08:52:44;;;;;;;1.92;1.50;;;;;;;23.35;72.05;100286.75;5059047;28;20219;-78
2023/10/23 08:55:13;;;;;;;1.30;1.30;;;;;;;23.53;71.77;100314.41;5062895;28;20286;-78
2023/10/23 08:57:44;;;;;;;1.48;1.38;;;;;;;23.69;70.33;100319.09;5074393;28;20290;-79
2023/10/23 09:00:12;;;;;;;1.95;1.85;;;;;;;23.55;72.22;100301.97;5074653;28;20264;-78
2023/10/23 09:02:38;;;;;;;1.02;1.02;;;;;;;23.54;73.16;100309.03;5039219;28;20309;-77
2023/10/23 09:05:06;;;;;;;7.07;2.40;;;;;;;23.54;75.24;100314.31;5074310;28;20209;-77
2023/10/23 09:07:33;;;;;;;1.35;1.35;;;;;;;23.77;74.58;100302.94;5074619;28;20202;-79
2023/10/23 09:10:05;;;;;;;1.77;1.70;;;;;;;23.75;77.04;100294.22;5074007;28;21390;-77
2023/10/23 09:12:33;;;;;;;2.58;1.92;;;;;;;23.71;75.50;100295.22;5064002;28;20227;-78
2023/10/23 09:15:13;;;;;;;4.22;1.52;;;;;;;23.69;75.78;100275.88;5071061;28;20590;-79
2023/10/23 09:17:40;;;;;;;3.70;1.83;;;;;;;23.47;77.16;100281.03;5074098;28;20690;-81
2023/10/23 09:20:21;;;;;;;7.63;1.60;;;;;;;23.78;76.93;100274.69;5074290;28;20268;-81
2023/10/23 09:22:48;;;;;;;1.50;1.38;;;;;;;23.94;79.15;100281.16;5074361;28;20238;-80
2023/10/23 09:25:17;;;;;;;1.98;1.20;;;;;;;23.99;75.10;100280.06;5071199;28;20210;-78
2023/10/23 09:27:44;;;;;;;15.23;2.70;;;;;;;23.88;75.82;100282.25;5063687;28;20214;-79
2023/10/23 09:30:13;;;;;;;1.75;1.27;;;;;;;24.06;75.90;100286.00;5073752;28;20603;-79
2023/10/23 09:32:40;;;;;;;5.20;1.55;;;;;;;24.15;76.21;100291.84;5073959;28;20233;-79
2023/10/23 09:35:08;;;;;;;4.10;1.52;;;;;;;24.16;76.36;100290.06;5074235;28;20207;-77
2023/10/23 09:37:37;;;;;;;3.58;1.42;;;;;;;24.16;75.17;100271.53;5074364;28;20226;-78
2023/10/23 09:40:09;;;;;;;10.38;2.63;;;;;;;24.33;75.91;100284.16;5074362;28;20679;-79
2023/10/23 09:42:37;;;;;;;3.97;2.13;;;;;;;24.37;72.82;100285.75;5068974;28;20271;-79
2023/10/23 09:45:05;;;;;;;3.00;1.35;;;;;;;24.01;73.74;100267.63;5065068;28;20195;-80
2023/10/23 09:47:33;;;;;;;3.92;1.77;;;;;;;23.67;76.56;100283.00;5073783;28;20214;-79
2023/10/23 09:50:01;;;;;;;11.18;2.05;;;;;;;23.73;76.16;100274.84;5073792;28;20203;-79
2023/10/23 09:52:28;;;;;;;2.75;1.48;;;;;;;23.64;77.11;100277.81;5059329;28;20231;-78
2023/10/23 09:55:00;;;;;;;4.22;1.58;;;;;;;23.82;74.86;100277.19;5072876;28;20199;-78
2023/10/23 09:57:34;;;;;;;3.40;1.77;;;;;;;23.69;74.79;100281.16;5073259;28;20337;-79
2023/10/23 10:00:13;;;;;;;6.13;1.63;;;;;;;23.75;74.32;100265.06;5073720;28;20211;-78
2023/10/23 10:02:40;;;;;;;4.25;1.40;;;;;;;23.89;73.39;100276.03;5073693;28;20203;-75
2023/10/23 10:05:10;;;;;;;6.40;1.55;;;;;;;24.02;73.34;100269.34;5072949;28;20202;-74
2023/10/23 10:07:47;;;;;;;4.72;1.25;;;;;;;24.07;80.09;100272.72;5072683;28;20666;-74
2023/10/23 10:10:15;;;;;;;3.40;1.20;;;;;;;24.12;74.51;100269.88;5073248;28;20208;-78
2023/10/23 10:12:43;;;;;;;4.03;1.35;;;;;;;23.73;72.59;100258.09;5076180;28;20234;-78
2023/10/23 10:15:11;;;;;;;3.35;1.10;;;;;;;23.73;73.04;100272.19;5041984;28;20242;-75
2023/10/23 10:17:40;;;;;;;3.10;1.55;;;;;;;23.70;73.48;100256.41;5081683;28;20203;-78
2023/10/23 10:20:09;;;;;;;12.52;1.95;;;;;;;23.50;72.12;100179.50;5076312;28;20682;-79
2023/10/23 10:22:39;;;;;;;2.15;1.23;;;;;;;24.07;72.24;100261.25;5069788;28;20659;-79
2023/10/23 10:25:09;;;;;;;5.03;1.50;;;;;;;24.28;70.31;100243.69;5067207;28;20210;-80
2023/10/23 10:27:36;;;;;;;2.20;1.63;;;;;;;24.50;69.10;100249.91;5061475;28;20214;-74
2023/10/23 10:30:05;;;;;;;2.95;1.27;;;;;;;24.57;68.53;100246.09;5053544;28;20650;-79
2023/10/23 10:32:34;;;;;;;3.13;1.52;;;;;;;24.68;67.90;100251.81;5035047;28;20675;-78
2023/10/23 10:35:03;;;;;;;5.20;1.80;;;;;;;24.78;67.16;100247.88;5053303;28;20246;-77
2023/10/23 10:37:31;;;;;;;2.42;1.25;;;;;;;24.87;66.10;100251.97;5053224;28;20199;-78
2023/10/23 10:40:06;;;;;;;4.80;2.08;;;;;;;24.85;66.05;100240.56;5053795;28;20575;-78
2023/10/23 10:42:38;;;;;;;2.28;1.17;;;;;;;24.85;64.78;100252.03;5053039;28;20199;-77
2023/10/23 10:45:19;;;;;;;3.50;1.52;;;;;;;24.99;64.09;100247.03;5053222;28;20199;-78
2023/10/23 10:47:53;;;;;;;6.35;1.40;;;;;;;25.07;63.40;100252.88;5053054;28;20242;-79
2023/10/23 10:50:34;;;;;;;2.15;1.10;;;;;;;25.22;61.80;100250.53;5054320;28;20572;-81
2023/10/23 10:53:03;;;;;;;7.50;2.20;;;;;;;25.13;62.11;100244.66;5018765;28;20262;-78
2023/10/23 10:55:30;;;;;;;3.58;1.13;;;;;;;25.14;62.30;100242.88;5053100;28;20200;-78
2023/10/23 10:57:58;;;;;;;2.58;1.13;;;;;;;24.93;63.09;100228.72;5052679;28;20203;-78
2023/10/23 11:00:28;;;;;;;3.40;1.15;;;;;;;24.88;63.99;100256.34;5052647;28;20203;-79
2023/10/23 11:02:56;;;;;;;3.70;1.05;;;;;;;24.74;62.77;100210.91;5052059;28;20223;-79
2023/10/23 11:05:23;;;;;;;7.57;2.15;;;;;;;24.83;62.84;100222.03;5065886;28;20207;-78
2023/10/23 11:07:51;;;;;;;3.15;1.95;;;;;;;25.14;61.17;100251.72;5068108;28;20198;-78
2023/10/23 11:10:19;;;;;;;2.17;0.90;;;;;;;25.33;60.25;100253.59;5073297;28;20252;-78
2023/10/23 11:12:46;;;;;;;2.33;1.05;;;;;;;25.37;57.76;100244.53;5057330;28;20272;-77
2023/10/23 11:15:13;;;;;;;4.35;1.40;;;;;;;25.36;56.38;100249.00;5073114;28;20205;-77
2023/10/23 11:17:41;;;;;;;27.42;1.95;;;;;;;25.45;55.64;100239.75;5058908;28;20194;-82
2023/10/23 11:20:12;;;;;;;2.20;1.15;;;;;;;25.43;53.62;100238.97;5073138;28;20265;-78
2023/10/23 11:22:41;;;;;;;3.97;2.00;;;;;;;25.22;54.85;100239.91;5029428;28;20260;-76
2023/10/23 11:25:09;;;;;;;1.85;1.17;;;;;;;25.32;55.17;100241.22;5067227;28;20202;-79
2023/10/23 11:27:36;;;;;;;3.90;2.30;;;;;;;25.28;54.08;100235.19;5080610;28;20207;-76